Time;durP1;ratioP1;P1;durP2;ratioP2;P2;SDS_P1;SDS_P2;PMS_P1;PMS_P2;Temp;Humidity;BMP_temperature;BMP_pressure;BME280_temperature;BME280_humidity;BME280_pressure;Samples;Min_cycle;Max_cycle;Signal;HPM_P1;HPM_P2
2023/11/11 00:19:00;;;;;;;51.20;30.30;;;;;;;7.95;84.86;97213.09;435468;1254;99218;-41
2023/11/11 00:29:08;;;;;;;39.90;24.90;;;;;;;7.87;84.90;97212.59;435364;1253;112187;-40
2023/11/11 00:39:12;;;;;;;37.20;24.30;;;;;;;7.87;84.99;97211.42;434905;1251;560433;-39
2023/11/11 00:49:15;;;;;;;37.20;21.30;;;;;;;7.92;85.41;97206.52;435338;1253;99176;-42
2023/11/11 00:59:19;;;;;;;44.90;26.50;;;;;;;8.01;85.51;97203.56;435534;1253;107789;-40
2023/11/11 01:09:23;;;;;;;44.00;26.50;;;;;;;7.88;85.58;97200.23;435323;1251;98798;-40
2023/11/11 01:19:27;;;;;;;45.90;24.90;;;;;;;7.72;85.57;97202.41;435324;1253;110707;-42
2023/11/11 01:29:32;;;;;;;40.90;22.90;;;;;;;7.73;85.83;97203.20;435356;1253;108456;-40
2023/11/11 01:39:35;;;;;;;40.10;23.00;;;;;;;7.72;85.84;97201.88;435496;1253;99208;-40
2023/11/11 01:49:39;;;;;;;44.20;25.80;;;;;;;7.68;86.03;97198.31;435554;1254;107566;-41
2023/11/11 01:59:44;;;;;;;48.80;27.00;;;;;;;7.55;86.22;97190.96;435594;1254;98840;-39
2023/11/11 02:19:52;;;;;;;48.90;26.90;;;;;;;7.56;86.34;97167.02;436010;1251;108140;-41
2023/11/11 02:29:55;;;;;;;52.40;30.40;;;;;;;7.63;86.34;97158.48;435393;1249;99228;-41
2023/11/11 02:39:59;;;;;;;56.00;30.00;;;;;;;7.61;86.60;97153.62;435348;1263;108196;-41
2023/11/11 02:50:03;;;;;;;54.90;31.20;;;;;;;7.45;86.27;97141.34;435468;1263;97975;-44
2023/11/11 03:10:11;;;;;;;42.20;24.40;;;;;;;7.25;86.37;97125.43;435350;1253;107729;-41
2023/11/11 03:20:16;;;;;;;50.80;27.40;;;;;;;7.29;86.52;97126.98;435357;1253;98805;-40
2023/11/11 03:30:19;;;;;;;53.90;29.70;;;;;;;7.32;86.67;97120.15;435353;1254;108670;-40
2023/11/11 03:50:27;;;;;;;55.40;29.10;;;;;;;7.05;86.24;97111.20;435590;1254;111228;-42
2023/11/11 04:00:31;;;;;;;40.70;24.80;;;;;;;6.87;86.18;97116.29;435412;1263;107097;-41
2023/11/11 04:10:35;;;;;;;48.00;26.10;;;;;;;6.73;86.25;97118.61;435709;1254;98357;-40
2023/11/11 04:20:38;;;;;;;51.50;29.30;;;;;;;6.65;86.61;97111.25;435504;1254;107473;-40
2023/11/11 04:30:42;;;;;;;51.00;27.40;;;;;;;6.43;86.44;97101.27;435506;1253;99215;-41
2023/11/11 04:40:47;;;;;;;44.60;24.40;;;;;;;6.23;86.34;97097.77;435404;1263;112151;-42
2023/11/11 04:50:51;;;;;;;32.40;21.30;;;;;;;6.19;86.46;97093.81;435509;1254;107502;-41
2023/11/11 05:00:55;;;;;;;32.90;20.40;;;;;;;6.15;86.49;97112.48;435386;1253;99238;-40
2023/11/11 05:10:58;;;;;;;41.70;25.90;;;;;;;6.23;87.20;97122.27;435372;1253;107950;-40
2023/11/11 05:21:02;;;;;;;43.10;27.20;;;;;;;6.35;87.37;97118.67;435745;1263;99241;-41
2023/11/11 05:41:10;;;;;;;37.30;22.30;;;;;;;6.26;86.92;97114.13;435430;1251;108424;-41
2023/11/11 05:51:14;;;;;;;37.80;24.60;;;;;;;6.17;86.95;97114.62;435589;1250;99231;-40
2023/11/11 06:01:17;;;;;;;42.40;27.10;;;;;;;6.07;87.39;97116.55;435535;1254;106699;-41
2023/11/11 06:11:21;;;;;;;31.50;22.20;;;;;;;6.07;87.20;97113.87;435415;1255;99123;-40
2023/11/11 06:21:25;;;;;;;34.10;22.40;;;;;;;6.11;87.35;97119.30;435535;1251;111697;-40
2023/11/11 06:31:29;;;;;;;44.00;25.70;;;;;;;6.20;87.40;97128.26;435486;1249;108579;-40
2023/11/11 06:41:32;;;;;;;45.70;29.90;;;;;;;6.19;87.68;97137.94;435406;1254;99207;-40
2023/11/11 06:51:36;;;;;;;38.80;27.40;;;;;;;6.34;87.72;97141.66;435478;1254;108188;-39
2023/11/11 07:01:41;;;;;;;37.70;26.80;;;;;;;6.52;87.82;97148.98;435468;1250;98702;-41
2023/11/11 07:11:45;;;;;;;36.20;24.60;;;;;;;6.73;87.95;97163.37;435471;1250;111898;-41
2023/11/11 07:21:47;;;;;;;44.10;26.90;;;;;;;6.94;88.15;97171.34;435448;1253;108088;-40
2023/11/11 07:32:12;;;;;;;45.90;30.40;;;;;;;6.97;88.07;97174.54;435618;1251;99874;-40
2023/11/11 07:42:15;;;;;;;44.90;30.30;;;;;;;6.96;87.78;97169.47;435346;1263;108951;-41
2023/11/11 08:02:25;;;;;;;31.50;23.00;;;;;;;7.21;87.93;97168.71;435474;1249;110584;-39
2023/11/11 08:12:29;;;;;;;36.10;23.30;;;;;;;7.31;88.04;97169.98;435484;1253;108348;-39
2023/11/11 08:22:33;;;;;;;37.30;24.40;;;;;;;7.39;88.21;97167.66;435642;1251;99244;-40
2023/11/11 08:32:37;;;;;;;35.00;23.40;;;;;;;7.48;88.11;97166.63;435440;1251;108440;-40
2023/11/11 08:42:40;;;;;;;30.70;20.10;;;;;;;7.66;87.97;97160.89;435328;1251;99237;-41
2023/11/11 08:52:44;;;;;;;36.90;24.50;;;;;;;7.72;87.93;97169.16;435641;1250;110266;-40
2023/11/11 09:02:49;;;;;;;41.00;24.70;;;;;;;7.70;88.01;97178.50;435701;1253;108196;-40
2023/11/11 09:12:53;;;;;;;35.30;23.00;;;;;;;7.83;87.86;97173.33;435521;1254;99237;-39
2023/11/11 09:22:57;;;;;;;27.50;18.80;;;;;;;8.06;87.57;97163.30;435625;1249;109416;-40
2023/11/11 09:33:02;;;;;;;34.00;23.30;;;;;;;8.20;87.67;97153.25;435589;1253;99336;-41
2023/11/11 09:43:05;;;;;;;33.00;21.40;;;;;;;8.23;87.49;97152.48;435589;1250;111182;-40
2023/11/11 09:53:11;;;;;;;29.10;20.50;;;;;;;8.33;87.46;97136.89;435669;1253;108599;-41
2023/11/11 10:03:17;;;;;;;30.50;21.10;;;;;;;8.49;86.97;97119.75;435465;1253;99247;-40
2023/11/11 10:13:21;;;;;;;27.70;20.30;;;;;;;8.87;86.93;97115.35;435469;1253;108522;-41
2023/11/11 10:23:26;;;;;;;29.20;20.90;;;;;;;9.40;86.95;97103.37;435612;1251;99209;-42
2023/11/11 10:33:29;;;;;;;28.00;20.70;;;;;;;9.61;86.42;97095.19;435615;1251;112999;-40
2023/11/11 10:43:33;;;;;;;26.90;19.30;;;;;;;9.75;86.13;97081.55;435589;1253;107193;-40
2023/11/11 10:53:39;;;;;;;29.80;18.40;;;;;;;10.01;85.70;97075.98;435554;1253;99048;-41
2023/11/11 11:03:43;;;;;;;24.60;16.40;;;;;;;10.26;85.16;97074.31;435610;1249;106729;-40
2023/11/11 11:13:51;;;;;;;24.80;17.80;;;;;;;10.29;84.83;97071.46;435560;1251;99399;-40
2023/11/11 11:23:56;;;;;;;25.20;17.80;;;;;;;10.13;84.36;97058.45;435589;1249;110718;-40
2023/11/11 11:34:00;;;;;;;27.90;18.80;;;;;;;9.76;84.11;97059.34;435650;1253;107386;-40
2023/11/11 11:44:05;;;;;;;22.00;16.40;;;;;;;9.87;83.93;97058.38;435675;1250;99198;-40
2023/11/11 11:54:09;;;;;;;19.90;15.20;;;;;;;9.97;83.71;97059.20;435409;1253;107949;-40
2023/11/11 12:14:17;;;;;;;21.70;15.50;;;;;;;10.16;83.39;97060.35;435555;1251;111948;-41
2023/11/11 12:34:28;;;;;;;24.50;16.80;;;;;;;9.98;82.74;97064.26;435574;1250;98007;-41
2023/11/11 12:54:38;;;;;;;22.60;14.90;;;;;;;9.86;82.55;97070.68;435388;1253;99288;-40
2023/11/11 13:04:41;;;;;;;29.10;17.70;;;;;;;9.81;82.69;97065.40;435581;1251;111464;-40
2023/11/11 13:14:44;;;;;;;22.60;16.00;;;;;;;9.75;82.53;97067.55;435373;1253;107593;-41
2023/11/11 13:24:48;;;;;;;23.10;15.30;;;;;;;9.63;82.15;97069.65;435642;1253;99237;-41
2023/11/11 13:34:52;;;;;;;22.30;16.50;;;;;;;9.61;82.16;97072.70;435442;1253;109386;-42
2023/11/11 13:44:55;;;;;;;20.90;15.00;;;;;;;9.56;82.14;97069.42;435606;1251;99238;-39
2023/11/11 13:54:59;;;;;;;27.30;17.10;;;;;;;9.42;82.17;97068.64;435495;1253;111915;-44
2023/11/11 14:05:03;;;;;;;35.20;22.20;;;;;;;9.28;82.16;97074.84;435460;1253;109124;-41
2023/11/11 14:15:08;;;;;;;28.00;19.20;;;;;;;9.20;82.09;97073.89;435533;1255;99346;-41
2023/11/11 14:25:13;;;;;;;35.60;21.20;;;;;;;9.19;82.08;97086.08;435465;1250;106630;-40
2023/11/11 14:35:17;;;;;;;36.40;22.80;;;;;;;9.08;82.06;97096.01;435486;1253;99221;-43
2023/11/11 14:45:21;;;;;;;43.40;26.30;;;;;;;8.83;82.04;97100.67;436039;1251;112779;-40
2023/11/11 14:55:25;;;;;;;48.30;28.00;;;;;;;8.54;82.13;97102.67;435491;1251;107486;-41
2023/11/11 15:05:29;;;;;;;50.90;31.80;;;;;;;8.37;82.15;97107.30;435448;1251;99479;-41
2023/11/11 15:15:33;;;;;;;67.10;37.90;;;;;;;8.33;82.33;97117.58;435439;1249;108311;-40
2023/11/11 15:25:37;;;;;;;66.40;39.10;;;;;;;8.32;82.67;97125.25;435457;1253;99284;-41
2023/11/11 15:35:42;;;;;;;99.20;60.80;;;;;;;8.18;82.68;97141.91;435682;1253;112035;-40
2023/11/11 15:45:48;;;;;;;92.60;56.90;;;;;;;7.95;82.83;97144.50;435685;1251;109723;-41
2023/11/11 15:55:51;;;;;;;67.30;39.00;;;;;;;7.82;82.81;97151.79;435661;1250;99218;-40
2023/11/11 16:05:55;;;;;;;57.60;36.00;;;;;;;7.69;82.96;97167.08;435425;1253;107874;-40
2023/11/11 16:15:59;;;;;;;91.80;59.30;;;;;;;7.61;83.20;97179.05;435516;1251;99336;-39
2023/11/11 16:26:04;;;;;;;138.70;79.40;;;;;;;7.53;83.53;97189.35;435605;1251;112115;-41
2023/11/11 16:36:10;;;;;;;119.60;66.70;;;;;;;7.39;83.29;97205.81;435469;1250;107158;-40
2023/11/11 16:46:14;;;;;;;123.00;70.90;;;;;;;7.29;83.39;97209.23;435419;1253;97999;-40
2023/11/11 16:56:18;;;;;;;136.80;79.50;;;;;;;7.31;83.67;97207.80;435593;1253;108501;-41
2023/11/11 17:06:25;;;;;;;208.30;113.40;;;;;;;7.13;83.67;97206.89;435419;1253;99366;-41
2023/11/11 17:16:30;;;;;;;153.30;90.10;;;;;;;6.89;83.76;97206.48;435496;1253;112939;-41
2023/11/11 17:26:33;;;;;;;107.90;64.90;;;;;;;6.74;83.87;97211.03;435367;1253;108602;-42
2023/11/11 17:36:37;;;;;;;100.30;60.80;;;;;;;6.66;83.89;97214.02;435414;1253;99269;-41
2023/11/11 17:46:41;;;;;;;101.00;58.00;;;;;;;6.73;84.24;97218.69;435533;1251;107678;-41
2023/11/11 17:56:45;;;;;;;104.40;62.50;;;;;;;6.59;83.97;97226.71;435608;1251;98692;-41
2023/11/11 18:06:49;;;;;;;101.70;59.10;;;;;;;6.33;84.28;97231.99;435509;1263;112013;-40
2023/11/11 18:16:53;;;;;;;83.60;55.40;;;;;;;6.21;84.28;97234.05;435467;1253;108306;-40
2023/11/11 18:26:57;;;;;;;75.10;52.80;;;;;;;6.19;84.43;97242.94;435444;1252;99256;-39
2023/11/11 18:37:01;;;;;;;100.10;59.60;;;;;;;6.27;84.66;97250.95;435561;1251;108824;-39
2023/11/11 18:47:05;;;;;;;109.30;65.20;;;;;;;6.31;84.93;97249.19;435509;1253;99188;-41
2023/11/11 19:07:13;;;;;;;97.70;53.10;;;;;;;6.24;84.90;97258.93;435465;1254;107804;-40
2023/11/11 19:17:17;;;;;;;77.40;41.30;;;;;;;6.35;85.14;97261.95;435402;1253;97940;-41
2023/11/11 19:27:20;;;;;;;64.80;34.30;;;;;;;6.49;85.22;97268.10;435386;1263;109512;-41
2023/11/11 19:37:25;;;;;;;66.70;40.80;;;;;;;6.61;85.54;97269.49;435338;1253;99228;-41
2023/11/11 19:47:30;;;;;;;65.40;39.20;;;;;;;6.62;85.68;97271.41;435489;1253;111714;-39
2023/11/11 19:57:37;;;;;;;54.80;36.40;;;;;;;6.58;85.52;97278.95;435497;1254;108358;-40
2023/11/11 20:07:42;;;;;;;67.40;40.70;;;;;;;6.63;85.53;97283.79;435466;1253;97940;-40
2023/11/11 20:17:46;;;;;;;65.20;40.80;;;;;;;6.78;85.90;97284.29;435317;1254;107375;-40
2023/11/11 20:27:50;;;;;;;80.50;45.50;;;;;;;6.85;85.92;97290.39;435424;1251;98740;-40
2023/11/11 20:37:54;;;;;;;85.90;48.00;;;;;;;6.70;85.79;97290.98;435581;1251;110967;-41
2023/11/11 20:58:01;;;;;;;78.50;46.10;;;;;;;6.29;85.78;97289.31;435430;1263;98046;-40
2023/11/11 21:08:04;;;;;;;68.40;39.50;;;;;;;6.19;85.72;97280.84;435366;1254;106361;-40
2023/11/11 21:18:08;;;;;;;75.20;45.90;;;;;;;6.03;85.71;97282.95;435273;1251;99240;-40
2023/11/11 21:28:12;;;;;;;90.00;50.30;;;;;;;5.92;85.72;97290.85;435342;1253;112024;-39
2023/11/11 21:38:18;;;;;;;112.10;58.80;;;;;;;5.62;85.64;97297.67;435440;1263;107876;-41
2023/11/11 21:48:22;;;;;;;72.70;44.10;;;;;;;5.40;85.54;97298.91;435530;1253;98568;-40
2023/11/11 22:08:28;;;;;;;86.70;48.40;;;;;;;5.48;86.17;97319.92;435393;1255;99235;-40
2023/11/11 22:18:32;;;;;;;89.90;48.60;;;;;;;5.33;86.09;97319.33;435351;1254;111487;-40
2023/11/11 22:28:36;;;;;;;84.60;47.50;;;;;;;5.14;86.00;97324.02;435302;1263;108345;-40
2023/11/11 22:38:39;;;;;;;56.80;38.00;;;;;;;4.95;85.98;97328.45;435347;1263;99352;-40
2023/11/11 22:48:42;;;;;;;60.20;32.20;;;;;;;4.93;86.21;97325.45;435391;1263;108180;-40
2023/11/11 22:58:47;;;;;;;62.90;37.20;;;;;;;5.06;86.51;97321.67;435572;1251;98807;-40
2023/11/11 23:08:50;;;;;;;68.20;40.30;;;;;;;5.06;86.48;97320.48;435516;1254;111369;-41
2023/11/11 23:18:54;;;;;;;82.70;48.60;;;;;;;4.96;86.58;97322.60;435484;1259;107288;-40
2023/11/11 23:28:58;;;;;;;60.80;41.40;;;;;;;4.94;86.71;97324.10;435433;1254;99215;-41
2023/11/11 23:39:04;;;;;;;59.20;36.20;;;;;;;5.07;87.01;97327.98;435576;1254;107765;-41
2023/11/11 23:49:08;;;;;;;56.60;34.80;;;;;;;5.19;87.06;97332.94;435285;1254;99217;-41
2023/11/11 23:59:11;;;;;;;75.30;40.70;;;;;;;5.28;87.11;97343.33;435506;1263;112054;-40
